Time;durP1;ratioP1;P1;durP2;ratioP2;P2;SDS_P1;SDS_P2;PMS_P1;PMS_P2;Temp;Humidity;BMP_temperature;BMP_pressure;BME280_temperature;BME280_humidity;BME280_pressure;Samples;Min_cycle;Max_cycle;Signal;HPM_P1;HPM_P2
2023/12/13 00:01:38;;;;;;;6.03;1.10;;;;;;;;;;4973665;28;20034;-65
2023/12/13 00:04:03;;;;;;;13.02;1.63;;;;;;;;;;4976503;28;20551;-65
2023/12/13 00:06:29;;;;;;;3.63;0.90;;;;;;;;;;4977270;28;20137;-65
2023/12/13 00:08:54;;;;;;;4.15;1.52;;;;;;;;;;4972778;28;20628;-65
2023/12/13 00:11:19;;;;;;;4.43;1.23;;;;;;;;;;4972949;28;20045;-65
2023/12/13 00:13:45;;;;;;;4.13;1.20;;;;;;;;;;4975934;28;20277;-65
2023/12/13 00:16:10;;;;;;;1.73;0.68;;;;;;;;;;4973410;28;20034;-65
2023/12/13 00:18:36;;;;;;;6.80;1.30;;;;;;;;;;4982891;28;20922;-65
2023/12/13 00:21:01;;;;;;;2.80;1.08;;;;;;;;;;4979495;28;20892;-65
2023/12/13 00:23:26;;;;;;;3.47;1.00;;;;;;;;;;4978228;28;20025;-65
2023/12/13 00:25:51;;;;;;;3.90;1.42;;;;;;;;;;4973947;28;20746;-65
2023/12/13 00:28:17;;;;;;;6.40;1.02;;;;;;;;;;4973933;28;20036;-65
2023/12/13 00:30:43;;;;;;;3.20;1.20;;;;;;;;;;4974068;28;20137;-65
2023/12/13 00:33:09;;;;;;;3.30;1.42;;;;;;;;;;4975458;28;20014;-65
2023/12/13 00:35:34;;;;;;;4.78;1.50;;;;;;;;;;4973483;28;20288;-65
2023/12/13 00:37:59;;;;;;;9.18;1.77;;;;;;;;;;4983523;28;20026;-65
2023/12/13 00:40:24;;;;;;;5.18;1.30;;;;;;;;;;4973974;28;21011;-65
2023/12/13 00:42:50;;;;;;;5.72;1.10;;;;;;;;;;4973242;28;20030;-65
2023/12/13 00:45:15;;;;;;;4.70;1.67;;;;;;;;;;4972335;28;20030;-64
2023/12/13 00:47:41;;;;;;;5.00;1.70;;;;;;;;;;4973737;28;20060;-64
2023/12/13 00:50:07;;;;;;;2.85;1.10;;;;;;;;;;4980486;28;20145;-64
2023/12/13 00:52:32;;;;;;;4.65;1.30;;;;;;;;;;4975343;28;20030;-64
2023/12/13 00:55:00;;;;;;;5.25;1.45;;;;;;;;;;4974702;28;20033;-64
2023/12/13 00:57:26;;;;;;;4.53;1.25;;;;;;;;;;4976317;28;20308;-64
2023/12/13 00:59:51;;;;;;;7.70;1.67;;;;;;;;;;4958607;28;20041;-65
2023/12/13 01:02:16;;;;;;;6.07;1.43;;;;;;;;;;4975591;28;20033;-64
2023/12/13 01:04:44;;;;;;;6.83;1.20;;;;;;;;;;4959704;28;20269;-64
2023/12/13 01:07:09;;;;;;;3.08;0.98;;;;;;;;;;4976925;28;20264;-65
2023/12/13 01:09:35;;;;;;;5.28;1.38;;;;;;;;;;4981454;28;20076;-64
2023/12/13 01:12:00;;;;;;;5.18;1.58;;;;;;;;;;4989569;28;20921;-64
2023/12/13 01:14:25;;;;;;;3.05;1.15;;;;;;;;;;4978280;28;20824;-64
2023/12/13 01:16:50;;;;;;;5.13;1.30;;;;;;;;;;4986385;28;20084;-64
2023/12/13 01:19:16;;;;;;;5.78;1.60;;;;;;;;;;4976064;28;20465;-65
2023/12/13 01:21:41;;;;;;;4.18;1.45;;;;;;;;;;4980648;28;20440;-64
2023/12/13 01:24:06;;;;;;;6.43;1.80;;;;;;;;;;4983094;28;20037;-64
2023/12/13 01:26:31;;;;;;;4.67;1.67;;;;;;;;;;4985377;28;20311;-64
2023/12/13 01:28:57;;;;;;;7.20;1.45;;;;;;;;;;4984885;28;20276;-64
2023/12/13 01:31:22;;;;;;;4.10;1.53;;;;;;;;;;4993052;28;20037;-64
2023/12/13 01:33:47;;;;;;;4.33;1.30;;;;;;;;;;4994231;28;21260;-64
2023/12/13 01:36:12;;;;;;;5.10;1.52;;;;;;;;;;4988305;28;21194;-64
2023/12/13 01:38:38;;;;;;;6.53;1.55;;;;;;;;;;4982796;28;20835;-64
2023/12/13 01:41:03;;;;;;;5.35;1.65;;;;;;;;;;4979482;28;20728;-65
2023/12/13 01:43:29;;;;;;;7.15;1.90;;;;;;;;;;4975243;28;20040;-64
2023/12/13 01:45:56;;;;;;;6.10;1.45;;;;;;;;;;4975100;28;20028;-64
2023/12/13 01:48:22;;;;;;;5.50;1.38;;;;;;;;;;4985451;28;20291;-64
2023/12/13 01:50:48;;;;;;;13.20;2.30;;;;;;;;;;4975205;28;20080;-64
2023/12/13 01:53:14;;;;;;;7.30;1.90;;;;;;;;;;4975288;28;20037;-64
2023/12/13 01:55:40;;;;;;;4.95;1.73;;;;;;;;;;4975784;28;20042;-64
2023/12/13 01:58:05;;;;;;;9.85;1.80;;;;;;;;;;4976654;28;21063;-63
2023/12/13 02:00:32;;;;;;;7.93;2.08;;;;;;;;;;4979181;28;20854;-63
2023/12/13 02:02:57;;;;;;;8.88;2.25;;;;;;;;;;4979164;28;20072;-63
2023/12/13 02:05:26;;;;;;;5.70;2.20;;;;;;;;;;4977794;28;20938;-63
2023/12/13 02:07:51;;;;;;;7.55;1.92;;;;;;;;;;4973798;28;20880;-64
2023/12/13 02:10:16;;;;;;;9.32;2.13;;;;;;;;;;4974971;28;20034;-65
2023/12/13 02:12:42;;;;;;;4.70;1.40;;;;;;;;;;4974836;28;20061;-64
2023/12/13 02:15:07;;;;;;;5.13;1.63;;;;;;;;;;4974301;28;20287;-64
2023/12/13 02:17:33;;;;;;;10.57;2.30;;;;;;;;;;4975090;28;20022;-64
2023/12/13 02:19:58;;;;;;;8.75;1.60;;;;;;;;;;4976226;28;20428;-64
2023/12/13 02:22:24;;;;;;;4.50;1.25;;;;;;;;;;4974761;28;20036;-65
2023/12/13 02:24:49;;;;;;;5.45;1.48;;;;;;;;;;4987683;28;20111;-65
2023/12/13 02:27:14;;;;;;;6.93;1.60;;;;;;;;;;4987502;28;20022;-65
2023/12/13 02:29:40;;;;;;;8.20;2.17;;;;;;;;;;4958885;28;20922;-65
2023/12/13 02:32:05;;;;;;;8.85;1.85;;;;;;;;;;4978528;28;20022;-65
2023/12/13 02:34:30;;;;;;;5.72;1.92;;;;;;;;;;4988692;28;20953;-65
2023/12/13 02:36:56;;;;;;;6.60;2.05;;;;;;;;;;4987112;28;20033;-65
2023/12/13 02:39:21;;;;;;;11.03;2.20;;;;;;;;;;4976376;28;20037;-65
2023/12/13 02:41:46;;;;;;;7.22;1.70;;;;;;;;;;4976533;28;20276;-65
2023/12/13 02:44:12;;;;;;;4.82;1.65;;;;;;;;;;4975720;28;20022;-65
2023/12/13 02:46:37;;;;;;;5.32;2.20;;;;;;;;;;4981561;28;20146;-65
2023/12/13 02:49:02;;;;;;;7.35;2.15;;;;;;;;;;4985112;28;20137;-65
2023/12/13 02:51:27;;;;;;;5.57;2.00;;;;;;;;;;4987515;28;20091;-65
2023/12/13 02:53:53;;;;;;;6.88;1.73;;;;;;;;;;4979639;28;20029;-65
2023/12/13 02:56:18;;;;;;;6.68;1.73;;;;;;;;;;4958130;28;20575;-65
2023/12/13 02:58:43;;;;;;;7.40;1.73;;;;;;;;;;4984393;28;20040;-65
2023/12/13 03:01:08;;;;;;;7.80;1.60;;;;;;;;;;4986021;28;20281;-65
2023/12/13 03:03:33;;;;;;;5.27;1.90;;;;;;;;;;4984054;28;20303;-65
2023/12/13 03:05:59;;;;;;;8.93;2.42;;;;;;;;;;4986052;28;20292;-65
2023/12/13 03:08:24;;;;;;;8.70;2.20;;;;;;;;;;4986221;28;21120;-65
2023/12/13 03:10:49;;;;;;;4.80;1.90;;;;;;;;;;4982569;28;20803;-65
2023/12/13 03:13:15;;;;;;;7.75;2.17;;;;;;;;;;4973926;28;20068;-64
2023/12/13 03:15:40;;;;;;;6.20;1.75;;;;;;;;;;4973455;28;20142;-64
2023/12/13 03:18:05;;;;;;;4.35;2.25;;;;;;;;;;4980915;28;20879;-64
2023/12/13 03:20:31;;;;;;;6.55;2.00;;;;;;;;;;4976481;28;20018;-64
2023/12/13 03:22:56;;;;;;;9.73;2.75;;;;;;;;;;4991140;28;20033;-64
2023/12/13 03:25:22;;;;;;;11.00;1.98;;;;;;;;;;4974307;28;20796;-64
2023/12/13 03:27:47;;;;;;;9.68;2.30;;;;;;;;;;4974508;28;20061;-64
2023/12/13 03:30:12;;;;;;;5.50;2.30;;;;;;;;;;4975909;28;21194;-65
2023/12/13 03:32:41;;;;;;;6.25;1.90;;;;;;;;;;4974550;28;20137;-65
2023/12/13 03:35:06;;;;;;;4.80;2.05;;;;;;;;;;4975671;28;20037;-65
2023/12/13 03:37:33;;;;;;;7.65;2.10;;;;;;;;;;4974239;28;20030;-65
2023/12/13 03:39:58;;;;;;;7.97;2.10;;;;;;;;;;4974657;28;20028;-65
2023/12/13 03:42:23;;;;;;;7.28;1.98;;;;;;;;;;4974427;28;20018;-65
2023/12/13 03:44:49;;;;;;;7.80;2.20;;;;;;;;;;4978859;28;20877;-65
2023/12/13 03:47:14;;;;;;;8.20;1.88;;;;;;;;;;4981843;28;21310;-65
2023/12/13 03:49:39;;;;;;;8.60;1.92;;;;;;;;;;4981650;28;20020;-65
2023/12/13 03:52:04;;;;;;;11.07;2.40;;;;;;;;;;4978233;28;20038;-65
2023/12/13 03:54:30;;;;;;;6.30;1.67;;;;;;;;;;4976081;28;20395;-65
2023/12/13 03:56:55;;;;;;;7.93;1.88;;;;;;;;;;4976799;28;20036;-65
2023/12/13 03:59:20;;;;;;;6.43;1.98;;;;;;;;;;4975525;28;20037;-66
2023/12/13 04:01:45;;;;;;;7.73;2.53;;;;;;;;;;4976560;28;20968;-66
2023/12/13 04:04:10;;;;;;;12.33;2.00;;;;;;;;;;4974387;28;21280;-65
2023/12/13 04:06:36;;;;;;;7.67;1.80;;;;;;;;;;4975596;28;20786;-65
2023/12/13 04:09:01;;;;;;;8.13;1.70;;;;;;;;;;4976053;28;21197;-65
2023/12/13 04:11:26;;;;;;;6.93;2.00;;;;;;;;;;4979336;28;21299;-65
2023/12/13 04:13:51;;;;;;;3.88;1.15;;;;;;;;;;4977864;28;21183;-65
2023/12/13 04:16:17;;;;;;;7.55;1.90;;;;;;;;;;4976838;28;20077;-64
2023/12/13 04:18:42;;;;;;;6.80;1.80;;;;;;;;;;4976146;28;20036;-64
2023/12/13 04:21:07;;;;;;;4.25;1.63;;;;;;;;;;4977907;28;20297;-64
2023/12/13 04:23:32;;;;;;;10.87;2.03;;;;;;;;;;4988039;28;20228;-64
2023/12/13 04:25:58;;;;;;;8.30;2.05;;;;;;;;;;4979699;28;20275;-64
2023/12/13 04:28:23;;;;;;;5.35;1.63;;;;;;;;;;4979351;28;20049;-64
2023/12/13 04:30:49;;;;;;;6.75;2.00;;;;;;;;;;4987865;28;20463;-64
2023/12/13 04:33:18;;;;;;;5.88;2.28;;;;;;;;;;4974527;28;20030;-64
2023/12/13 04:35:43;;;;;;;5.65;1.73;;;;;;;;;;4974219;28;20279;-64
2023/12/13 04:38:09;;;;;;;6.50;2.10;;;;;;;;;;4982197;28;20535;-65
2023/12/13 04:40:34;;;;;;;4.70;2.15;;;;;;;;;;4982064;28;20079;-64
2023/12/13 04:43:00;;;;;;;9.20;1.93;;;;;;;;;;4980899;28;20022;-65
2023/12/13 04:45:25;;;;;;;8.23;2.20;;;;;;;;;;4982473;28;20326;-65
2023/12/13 04:47:50;;;;;;;8.60;1.80;;;;;;;;;;4983628;28;20123;-65
2023/12/13 04:50:16;;;;;;;6.87;1.87;;;;;;;;;;4982201;28;20022;-65
2023/12/13 04:52:41;;;;;;;10.47;2.10;;;;;;;;;;4978987;28;20399;-64
2023/12/13 04:55:06;;;;;;;7.57;2.20;;;;;;;;;;4983791;28;20305;-64
2023/12/13 04:57:32;;;;;;;7.20;2.75;;;;;;;;;;4986289;28;20295;-64
2023/12/13 04:59:57;;;;;;;11.38;2.42;;;;;;;;;;4973899;28;20034;-64
2023/12/13 05:02:22;;;;;;;9.17;2.20;;;;;;;;;;4982263;28;20030;-64
2023/12/13 05:04:47;;;;;;;4.10;1.50;;;;;;;;;;4987942;28;20276;-64
2023/12/13 05:07:13;;;;;;;10.80;2.67;;;;;;;;;;4981193;28;20061;-64
2023/12/13 05:09:38;;;;;;;7.90;2.00;;;;;;;;;;4982154;28;20132;-66
2023/12/13 05:12:04;;;;;;;4.40;1.90;;;;;;;;;;4978951;28;20096;-66
2023/12/13 05:14:29;;;;;;;5.25;2.28;;;;;;;;;;4978710;28;20032;-66
2023/12/13 05:16:54;;;;;;;4.53;1.90;;;;;;;;;;4972583;28;20053;-66
2023/12/13 05:19:20;;;;;;;6.03;1.87;;;;;;;;;;4976199;28;21337;-66
2023/12/13 05:21:45;;;;;;;6.18;1.73;;;;;;;;;;4971773;28;21197;-66
2023/12/13 05:24:11;;;;;;;11.73;2.20;;;;;;;;;;4971168;28;20022;-66
2023/12/13 05:26:36;;;;;;;6.30;2.57;;;;;;;;;;4979023;28;20045;-66
2023/12/13 05:29:04;;;;;;;5.72;1.90;;;;;;;;;;4973415;28;20299;-66
2023/12/13 05:31:29;;;;;;;6.18;1.45;;;;;;;;;;4971973;28;20095;-66
2023/12/13 05:33:55;;;;;;;8.18;2.17;;;;;;;;;;4957792;28;20057;-66
2023/12/13 05:36:20;;;;;;;7.10;2.10;;;;;;;;;;4980020;28;20049;-66
2023/12/13 05:38:45;;;;;;;13.35;2.65;;;;;;;;;;4971190;28;20033;-66
2023/12/13 05:41:10;;;;;;;6.35;2.15;;;;;;;;;;4971549;28;20014;-66
2023/12/13 05:43:36;;;;;;;11.80;2.60;;;;;;;;;;4976664;28;20034;-65
2023/12/13 05:46:01;;;;;;;7.53;2.15;;;;;;;;;;4977807;28;20265;-65
2023/12/13 05:48:27;;;;;;;10.20;1.92;;;;;;;;;;4984486;28;20913;-66
2023/12/13 05:50:52;;;;;;;9.67;1.80;;;;;;;;;;4981495;28;20056;-65
2023/12/13 05:53:17;;;;;;;9.77;1.47;;;;;;;;;;4985599;28;20268;-66
2023/12/13 05:55:42;;;;;;;7.97;1.73;;;;;;;;;;4981657;28;20284;-65
2023/12/13 05:58:07;;;;;;;11.23;2.13;;;;;;;;;;4983644;28;20275;-65
2023/12/13 06:00:34;;;;;;;5.55;2.22;;;;;;;;;;4982129;28;20273;-65
2023/12/13 06:03:00;;;;;;;7.95;2.05;;;;;;;;;;4985954;28;20026;-65
2023/12/13 06:05:25;;;;;;;9.73;1.85;;;;;;;;;;4977171;28;20026;-65
2023/12/13 06:07:51;;;;;;;9.10;2.80;;;;;;;;;;4976064;28;20029;-65
2023/12/13 06:10:17;;;;;;;8.75;2.40;;;;;;;;;;4986858;28;20022;-65
2023/12/13 06:12:42;;;;;;;8.43;2.13;;;;;;;;;;4979507;28;20524;-65
2023/12/13 06:15:07;;;;;;;8.30;1.67;;;;;;;;;;4971638;28;20036;-65
2023/12/13 06:17:32;;;;;;;7.45;2.00;;;;;;;;;;4986390;28;20332;-64
2023/12/13 06:19:58;;;;;;;8.15;1.92;;;;;;;;;;4979339;28;20144;-64
2023/12/13 06:22:23;;;;;;;7.73;2.47;;;;;;;;;;4988235;28;20040;-64
2023/12/13 06:24:48;;;;;;;7.57;2.60;;;;;;;;;;4975725;28;20380;-65
2023/12/13 06:27:13;;;;;;;8.20;2.03;;;;;;;;;;4976020;28;20551;-65
2023/12/13 06:29:39;;;;;;;5.20;1.58;;;;;;;;;;4982411;28;20041;-65
2023/12/13 06:32:04;;;;;;;7.65;2.03;;;;;;;;;;4977737;28;20140;-65
2023/12/13 06:34:30;;;;;;;6.32;1.73;;;;;;;;;;4975709;28;20033;-65
2023/12/13 06:36:55;;;;;;;7.50;1.70;;;;;;;;;;4975823;28;20044;-65
2023/12/13 06:39:21;;;;;;;5.13;1.63;;;;;;;;;;4975244;28;20040;-65
2023/12/13 06:41:46;;;;;;;3.53;1.60;;;;;;;;;;4987795;28;20022;-65
2023/12/13 06:44:11;;;;;;;9.00;1.83;;;;;;;;;;4980326;28;20034;-65
2023/12/13 06:46:36;;;;;;;6.10;1.70;;;;;;;;;;4979167;28;20030;-65
2023/12/13 06:49:02;;;;;;;4.63;1.63;;;;;;;;;;4980147;28;20021;-65
2023/12/13 06:51:28;;;;;;;5.38;1.83;;;;;;;;;;4974898;28;20038;-65
2023/12/13 06:53:54;;;;;;;9.68;1.92;;;;;;;;;;4974298;28;20188;-65
2023/12/13 06:56:19;;;;;;;10.93;2.35;;;;;;;;;;4987599;28;20148;-65
2023/12/13 06:58:45;;;;;;;8.70;1.90;;;;;;;;;;4981965;28;20029;-65
2023/12/13 07:01:10;;;;;;;6.10;1.77;;;;;;;;;;4980970;28;20276;-65
2023/12/13 07:03:35;;;;;;;5.37;1.67;;;;;;;;;;4977853;28;20536;-65
2023/12/13 07:06:00;;;;;;;9.18;2.08;;;;;;;;;;4975656;28;21195;-65
2023/12/13 07:08:26;;;;;;;7.07;2.33;;;;;;;;;;4974565;28;20072;-65
2023/12/13 07:10:51;;;;;;;9.03;2.33;;;;;;;;;;4977143;28;21019;-65
2023/12/13 07:13:16;;;;;;;4.60;1.60;;;;;;;;;;4985403;28;21195;-65
2023/12/13 07:15:41;;;;;;;8.10;2.57;;;;;;;;;;4983793;28;20729;-64
2023/12/13 07:18:07;;;;;;;6.80;1.67;;;;;;;;;;4986863;28;21128;-65
2023/12/13 07:20:32;;;;;;;9.40;1.50;;;;;;;;;;4977221;28;20509;-64
2023/12/13 07:22:57;;;;;;;10.70;1.75;;;;;;;;;;4979111;28;20117;-65
2023/12/13 07:25:23;;;;;;;7.00;1.98;;;;;;;;;;4987516;28;20026;-65
2023/12/13 07:27:48;;;;;;;7.18;2.08;;;;;;;;;;4989949;28;20056;-65
2023/12/13 07:30:13;;;;;;;8.32;2.17;;;;;;;;;;4982072;28;20030;-65
2023/12/13 07:32:39;;;;;;;13.98;2.28;;;;;;;;;;4986403;28;20022;-65
2023/12/13 07:35:05;;;;;;;9.98;2.20;;;;;;;;;;4988834;28;20033;-65
2023/12/13 07:37:30;;;;;;;6.47;1.98;;;;;;;;;;4982015;28;20052;-65
2023/12/13 07:39:55;;;;;;;5.53;1.73;;;;;;;;;;4982702;28;20034;-65
2023/12/13 07:42:21;;;;;;;7.10;1.67;;;;;;;;;;4977292;28;20109;-65
2023/12/13 07:44:46;;;;;;;5.53;1.67;;;;;;;;;;4980132;28;20025;-65
2023/12/13 07:47:12;;;;;;;10.77;2.40;;;;;;;;;;4976453;28;20284;-65
2023/12/13 07:49:37;;;;;;;6.07;1.98;;;;;;;;;;4979721;28;20033;-65
2023/12/13 07:52:04;;;;;;;3.85;1.48;;;;;;;;;;4981543;28;20025;-65
2023/12/13 07:54:30;;;;;;;4.55;1.63;;;;;;;;;;4973936;28;20040;-65
2023/12/13 07:56:55;;;;;;;6.32;1.88;;;;;;;;;;4985601;28;20835;-65
2023/12/13 07:59:20;;;;;;;4.80;1.92;;;;;;;;;;4987708;28;20022;-65
2023/12/13 08:01:46;;;;;;;7.95;1.80;;;;;;;;;;4976089;28;20902;-65
2023/12/13 08:04:11;;;;;;;14.95;2.45;;;;;;;;;;4973377;28;20931;-66
2023/12/13 08:06:36;;;;;;;7.15;2.40;;;;;;;;;;4973594;28;20887;-66
2023/12/13 08:09:02;;;;;;;6.80;2.78;;;;;;;;;;4979144;28;20573;-66
2023/12/13 08:11:28;;;;;;;7.22;2.17;;;;;;;;;;4981101;28;20025;-66
2023/12/13 08:13:53;;;;;;;12.88;3.00;;;;;;;;;;4980151;28;20190;-66
2023/12/13 08:16:18;;;;;;;5.20;2.50;;;;;;;;;;4984506;28;20030;-66
2023/12/13 08:18:44;;;;;;;6.28;2.72;;;;;;;;;;4977528;28;20864;-66
2023/12/13 08:21:09;;;;;;;9.00;2.97;;;;;;;;;;4982435;28;20045;-66
2023/12/13 08:23:34;;;;;;;6.28;2.55;;;;;;;;;;4980697;28;20128;-66
2023/12/13 08:25:59;;;;;;;8.60;2.50;;;;;;;;;;4976836;28;20030;-66
2023/12/13 08:28:25;;;;;;;8.85;2.80;;;;;;;;;;4984595;28;20534;-66
2023/12/13 08:30:50;;;;;;;6.60;2.47;;;;;;;;;;4978837;28;20046;-66
2023/12/13 08:33:15;;;;;;;8.35;2.85;;;;;;;;;;4974154;28;20285;-66
2023/12/13 08:35:40;;;;;;;7.78;2.75;;;;;;;;;;4979478;28;20136;-65
2023/12/13 08:38:06;;;;;;;4.90;2.17;;;;;;;;;;4978888;28;20904;-65
2023/12/13 08:40:31;;;;;;;7.15;2.17;;;;;;;;;;4988846;28;20062;-65
2023/12/13 08:42:56;;;;;;;6.53;2.50;;;;;;;;;;4986833;28;20129;-65
2023/12/13 08:45:22;;;;;;;9.15;2.03;;;;;;;;;;4985580;28;20334;-64
2023/12/13 08:47:47;;;;;;;7.20;1.95;;;;;;;;;;4975286;28;20022;-65
2023/12/13 08:50:12;;;;;;;9.63;2.05;;;;;;;;;;4975364;28;20026;-65
2023/12/13 08:52:37;;;;;;;9.02;2.17;;;;;;;;;;4974478;28;20097;-65
2023/12/13 08:55:03;;;;;;;7.78;3.10;;;;;;;;;;4971508;28;20029;-67
2023/12/13 08:57:28;;;;;;;10.50;2.45;;;;;;;;;;4976176;28;20087;-65
2023/12/13 08:59:53;;;;;;;8.75;2.72;;;;;;;;;;4986070;28;20047;-66
2023/12/13 09:02:19;;;;;;;8.50;3.30;;;;;;;;;;4977016;28;20029;-66
2023/12/13 09:04:44;;;;;;;9.57;3.00;;;;;;;;;;4981720;28;20302;-65
2023/12/13 09:07:09;;;;;;;7.07;2.77;;;;;;;;;;4981035;28;20880;-65
2023/12/13 09:09:36;;;;;;;16.40;3.05;;;;;;;;;;4974264;28;21220;-65
2023/12/13 09:12:01;;;;;;;10.52;2.40;;;;;;;;;;4984530;28;20021;-65
2023/12/13 09:14:27;;;;;;;5.53;2.22;;;;;;;;;;4976154;28;20859;-65
2023/12/13 09:16:53;;;;;;;12.05;2.58;;;;;;;;;;4987707;28;20187;-65
2023/12/13 09:19:18;;;;;;;8.93;2.47;;;;;;;;;;4983449;28;20873;-65
2023/12/13 09:21:43;;;;;;;5.38;2.03;;;;;;;;;;4980319;28;20867;-65
2023/12/13 09:24:09;;;;;;;7.57;2.58;;;;;;;;;;4976829;28;20053;-65
2023/12/13 09:26:37;;;;;;;9.10;2.45;;;;;;;;;;4979316;28;20029;-65
2023/12/13 09:29:03;;;;;;;7.30;2.08;;;;;;;;;;4975771;28;20881;-65
2023/12/13 09:31:28;;;;;;;12.75;3.30;;;;;;;;;;4970715;28;20032;-65
2023/12/13 09:33:53;;;;;;;6.95;3.45;;;;;;;;;;4984686;28;20079;-64
2023/12/13 09:36:19;;;;;;;9.02;2.67;;;;;;;;;;4984494;28;20033;-64
2023/12/13 09:38:45;;;;;;;7.43;2.53;;;;;;;;;;4977461;28;20037;-64
2023/12/13 09:41:11;;;;;;;10.07;2.30;;;;;;;;;;4990216;28;20068;-64
2023/12/13 09:43:39;;;;;;;10.73;2.55;;;;;;;;;;4977132;28;20875;-64
2023/12/13 09:46:07;;;;;;;10.50;2.55;;;;;;;;;;4975527;28;20121;-64
2023/12/13 09:48:34;;;;;;;6.13;2.05;;;;;;;;;;4977032;28;20026;-64
2023/12/13 09:51:01;;;;;;;11.88;2.75;;;;;;;;;;4983455;28;20079;-64
2023/12/13 09:53:27;;;;;;;10.38;2.17;;;;;;;;;;4980418;28;20036;-64
2023/12/13 09:55:52;;;;;;;10.20;2.47;;;;;;;;;;4987289;28;20873;-64
2023/12/13 09:58:18;;;;;;;8.05;3.22;;;;;;;;;;4973817;28;20921;-65
2023/12/13 10:00:43;;;;;;;8.65;4.25;;;;;;;;;;4974505;28;20038;-65
2023/12/13 10:03:08;;;;;;;7.60;3.45;;;;;;;;;;4983144;28;20032;-65
2023/12/13 10:05:36;;;;;;;4.75;2.38;;;;;;;;;;4975833;28;20885;-65
2023/12/13 10:08:02;;;;;;;11.98;3.50;;;;;;;;;;4961958;28;20041;-65
2023/12/13 10:10:34;;;;;;;8.23;2.97;;;;;;;;;;4977514;28;20030;-65
2023/12/13 10:13:01;;;;;;;7.82;3.03;;;;;;;;;;4986895;28;20026;-66
2023/12/13 10:15:31;;;;;;;10.98;3.30;;;;;;;;;;4981956;28;20186;-65
2023/12/13 10:17:56;;;;;;;6.18;2.03;;;;;;;;;;4984703;28;20037;-65
2023/12/13 10:20:23;;;;;;;6.47;2.60;;;;;;;;;;4983502;28;20116;-64
2023/12/13 10:22:49;;;;;;;9.98;2.67;;;;;;;;;;4987613;28;20063;-64
2023/12/13 10:25:14;;;;;;;8.10;3.17;;;;;;;;;;4985509;28;20041;-64
2023/12/13 10:27:40;;;;;;;10.18;2.83;;;;;;;;;;4982930;28;20810;-64
2023/12/13 10:30:06;;;;;;;9.30;2.90;;;;;;;;;;4986208;28;20091;-64
2023/12/13 10:32:31;;;;;;;7.20;3.30;;;;;;;;;;4986183;28;20905;-64
2023/12/13 10:34:57;;;;;;;10.40;2.72;;;;;;;;;;4980090;28;20030;-64
2023/12/13 10:37:26;;;;;;;8.35;3.03;;;;;;;;;;4978490;28;20061;-64
2023/12/13 10:39:55;;;;;;;10.73;3.22;;;;;;;;;;4985407;28;20037;-64
2023/12/13 10:42:21;;;;;;;7.22;2.40;;;;;;;;;;4987901;28;20037;-64
2023/12/13 10:44:48;;;;;;;11.60;3.38;;;;;;;;;;4988842;28;20029;-64
2023/12/13 10:47:14;;;;;;;11.68;3.92;;;;;;;;;;4989225;28;20018;-64
2023/12/13 10:49:40;;;;;;;12.45;4.38;;;;;;;;;;4978569;28;20084;-64
2023/12/13 10:52:06;;;;;;;16.30;5.50;;;;;;;;;;4981178;28;20035;-64
2023/12/13 10:54:31;;;;;;;4.75;3.50;;;;;;;;;;4983723;28;20021;-64
2023/12/13 10:56:57;;;;;;;8.57;3.63;;;;;;;;;;4978160;28;20029;-64
2023/12/13 10:59:25;;;;;;;10.63;3.55;;;;;;;;;;4981025;28;20038;-64
2023/12/13 11:01:51;;;;;;;7.53;2.67;;;;;;;;;;4976825;28;20040;-64
2023/12/13 11:04:16;;;;;;;11.35;3.00;;;;;;;;;;4977435;28;20022;-63
2023/12/13 11:06:45;;;;;;;9.15;2.45;;;;;;;;;;4977782;28;20810;-63
2023/12/13 11:09:15;;;;;;;8.77;2.45;;;;;;;;;;4976253;28;20026;-64
2023/12/13 11:11:42;;;;;;;9.60;3.65;;;;;;;;;;4985959;28;20029;-64
2023/12/13 11:14:08;;;;;;;8.15;2.20;;;;;;;;;;4986686;28;20025;-64
2023/12/13 11:16:40;;;;;;;9.38;2.63;;;;;;;;;;5006918;28;20038;-63
2023/12/13 11:19:05;;;;;;;5.63;2.15;;;;;;;;;;4996223;28;20030;-63
2023/12/13 11:21:32;;;;;;;5.68;2.05;;;;;;;;;;5005297;28;20033;-64
2023/12/13 11:24:07;;;;;;;4.10;1.63;;;;;;;;;;5008279;28;20072;-64
2023/12/13 11:26:32;;;;;;;5.45;1.85;;;;;;;;;;4990151;28;20036;-64
2023/12/13 11:28:58;;;;;;;4.27;2.10;;;;;;;;;;5012241;28;20022;-66
2023/12/13 11:31:24;;;;;;;5.68;1.75;;;;;;;;;;5010687;28;20430;-64
2023/12/13 11:33:50;;;;;;;3.60;1.33;;;;;;;;;;5003240;28;20495;-64
2023/12/13 11:36:23;;;;;;;3.63;0.98;;;;;;;;;;4997971;28;20028;-64
2023/12/13 11:38:49;;;;;;;6.00;1.33;;;;;;;;;;5019108;28;20037;-64
2023/12/13 11:41:15;;;;;;;3.95;1.27;;;;;;;;;;5011991;28;20112;-64
2023/12/13 11:43:41;;;;;;;6.47;2.10;;;;;;;;;;5010464;28;20053;-64
2023/12/13 11:46:06;;;;;;;4.93;1.35;;;;;;;;;;5003376;28;20733;-65
2023/12/13 11:48:32;;;;;;;10.23;1.58;;;;;;;;;;4996377;28;20129;-64
2023/12/13 11:50:57;;;;;;;6.20;1.42;;;;;;;;;;4997550;28;20087;-64
2023/12/13 11:53:22;;;;;;;6.60;1.83;;;;;;;;;;5008855;28;20026;-65
2023/12/13 11:55:48;;;;;;;4.15;1.23;;;;;;;;;;4986876;28;20308;-64
2023/12/13 11:58:15;;;;;;;4.90;1.33;;;;;;;;;;5008240;28;20492;-64
2023/12/13 12:00:41;;;;;;;5.53;1.27;;;;;;;;;;4986329;28;20280;-64
2023/12/13 12:03:06;;;;;;;6.65;2.42;;;;;;;;;;4991756;28;20042;-64
2023/12/13 12:05:32;;;;;;;5.88;2.40;;;;;;;;;;4995796;28;20144;-64
2023/12/13 12:08:04;;;;;;;7.43;2.27;;;;;;;;;;5001483;28;20033;-64
2023/12/13 12:10:30;;;;;;;6.13;2.30;;;;;;;;;;4998601;28;20654;-64
2023/12/13 12:12:58;;;;;;;7.25;2.42;;;;;;;;;;4992149;28;20054;-65
2023/12/13 12:15:23;;;;;;;9.75;1.90;;;;;;;;;;5008103;28;20034;-65
2023/12/13 12:17:49;;;;;;;6.57;2.50;;;;;;;;;;4990086;28;20084;-65
2023/12/13 12:20:16;;;;;;;4.60;1.27;;;;;;;;;;4996201;28;20284;-65
2023/12/13 12:22:42;;;;;;;3.13;0.90;;;;;;;;;;4991487;28;20035;-64
2023/12/13 12:25:07;;;;;;;2.70;1.08;;;;;;;;;;5001631;28;20034;-64
2023/12/13 12:27:35;;;;;;;6.15;0.90;;;;;;;;;;5015533;28;20479;-65
2023/12/13 12:30:03;;;;;;;2.60;0.88;;;;;;;;;;4997771;28;20030;-65
2023/12/13 12:32:28;;;;;;;1.40;0.60;;;;;;;;;;5006481;28;20049;-66
2023/12/13 12:34:54;;;;;;;4.45;1.48;;;;;;;;;;4984915;28;20030;-65
2023/12/13 12:37:19;;;;;;;2.78;1.13;;;;;;;;;;4992740;28;20945;-65
2023/12/13 12:39:44;;;;;;;3.25;0.88;;;;;;;;;;5002710;28;20036;-65
2023/12/13 12:42:10;;;;;;;2.22;0.90;;;;;;;;;;4991439;28;20026;-63
2023/12/13 12:44:35;;;;;;;4.35;1.23;;;;;;;;;;4983220;28;20037;-64
2023/12/13 12:47:00;;;;;;;3.83;1.23;;;;;;;;;;4983235;28;20041;-64
2023/12/13 12:49:26;;;;;;;4.93;1.00;;;;;;;;;;4977698;28;20096;-64
2023/12/13 12:51:51;;;;;;;5.15;1.00;;;;;;;;;;5001662;28;20169;-64
2023/12/13 12:54:16;;;;;;;2.58;0.88;;;;;;;;;;5002020;28;20036;-64
2023/12/13 12:56:42;;;;;;;2.55;0.93;;;;;;;;;;4981522;28;20107;-64
2023/12/13 12:59:12;;;;;;;3.05;1.10;;;;;;;;;;5006182;28;20026;-64
2023/12/13 13:01:37;;;;;;;3.38;1.13;;;;;;;;;;5013001;28;20113;-64
2023/12/13 13:04:02;;;;;;;6.32;1.15;;;;;;;;;;5024271;28;20113;-64
2023/12/13 13:06:27;;;;;;;4.37;0.93;;;;;;;;;;5018343;28;20041;-63
2023/12/13 13:08:53;;;;;;;3.63;1.17;;;;;;;;;;5023400;28;20979;-63
2023/12/13 13:11:18;;;;;;;5.78;1.13;;;;;;;;;;5023837;28;20264;-63
2023/12/13 13:13:43;;;;;;;2.05;0.90;;;;;;;;;;5017326;28;20487;-64
2023/12/13 13:16:10;;;;;;;4.15;1.27;;;;;;;;;;4993731;28;20029;-64
2023/12/13 13:18:35;;;;;;;5.35;0.90;;;;;;;;;;5025941;28;20053;-65
2023/12/13 13:21:00;;;;;;;5.87;1.13;;;;;;;;;;5027894;28;20057;-65
2023/12/13 13:23:26;;;;;;;1.90;0.67;;;;;;;;;;5012836;28;20308;-64
2023/12/13 13:25:51;;;;;;;3.80;1.00;;;;;;;;;;4977134;28;20350;-65
2023/12/13 13:28:17;;;;;;;4.03;0.77;;;;;;;;;;4985433;28;20879;-64
2023/12/13 13:30:42;;;;;;;5.22;0.82;;;;;;;;;;4990858;28;20061;-63
2023/12/13 13:33:09;;;;;;;4.03;1.15;;;;;;;;;;4977718;28;20060;-64
2023/12/13 13:35:34;;;;;;;2.90;1.00;;;;;;;;;;4982779;28;20038;-63
2023/12/13 13:38:00;;;;;;;5.22;0.95;;;;;;;;;;4976368;28;20129;-66
2023/12/13 13:40:25;;;;;;;3.17;0.82;;;;;;;;;;4984687;28;20022;-64
2023/12/13 13:42:51;;;;;;;2.47;1.10;;;;;;;;;;4978128;28;21095;-63
2023/12/13 13:45:17;;;;;;;2.88;1.13;;;;;;;;;;4984931;28;20257;-64
2023/12/13 13:47:42;;;;;;;3.55;1.48;;;;;;;;;;4975645;28;20053;-66
2023/12/13 13:50:09;;;;;;;10.35;3.90;;;;;;;;;;4976706;28;20057;-65
2023/12/13 13:52:34;;;;;;;11.50;4.47;;;;;;;;;;4976012;28;20131;-65
2023/12/13 13:54:59;;;;;;;14.07;6.57;;;;;;;;;;4988375;28;20025;-66
2023/12/13 13:57:25;;;;;;;10.02;3.47;;;;;;;;;;5003378;28;20038;-66
2023/12/13 13:59:50;;;;;;;5.43;1.50;;;;;;;;;;4990396;28;20136;-66
2023/12/13 14:02:24;;;;;;;6.20;2.42;;;;;;;;;;5001806;28;20390;-63
2023/12/13 14:04:50;;;;;;;11.45;3.65;;;;;;;;;;4989094;28;20022;-63
2023/12/13 14:07:15;;;;;;;6.05;3.67;;;;;;;;;;4981832;28;20025;-64
2023/12/13 14:09:40;;;;;;;9.87;3.90;;;;;;;;;;4985926;28;20037;-64
2023/12/13 14:12:06;;;;;;;8.85;4.15;;;;;;;;;;5004814;28;20269;-63
2023/12/13 14:14:31;;;;;;;6.30;3.45;;;;;;;;;;4993015;28;20080;-63
2023/12/13 14:16:56;;;;;;;6.82;3.25;;;;;;;;;;4978469;28;20189;-65
2023/12/13 14:19:21;;;;;;;5.63;2.50;;;;;;;;;;4988981;28;20048;-65
2023/12/13 14:21:47;;;;;;;4.90;2.78;;;;;;;;;;5019150;28;20084;-64
2023/12/13 14:24:12;;;;;;;6.32;2.30;;;;;;;;;;4988935;28;20888;-65
2023/12/13 14:26:37;;;;;;;3.88;1.95;;;;;;;;;;4978175;28;20030;-65
2023/12/13 14:29:03;;;;;;;4.10;1.63;;;;;;;;;;4984044;28;20087;-62
2023/12/13 14:31:28;;;;;;;4.25;1.30;;;;;;;;;;4986830;28;20061;-64